createdAt,value
2019-03-09T00:02:00.157Z,25.9
2019-03-09T00:05:06.221Z,26
2019-03-09T00:08:12.280Z,25.9
2019-03-09T00:11:18.342Z,25.9
2019-03-09T00:14:24.397Z,26
2019-03-09T00:17:30.661Z,26
2019-03-09T00:20:36.823Z,26
2019-03-09T00:23:42.785Z,26
2019-03-09T00:26:48.949Z,26.1
2019-03-09T00:29:55.221Z,26.1
2019-03-09T00:33:02.104Z,26
2019-03-09T00:36:07.984Z,26.1
2019-03-09T00:39:13.921Z,26.1
2019-03-09T00:42:20.080Z,26.1
2019-03-09T00:45:27.467Z,26.2
2019-03-09T00:48:33.542Z,26.2
2019-03-09T00:51:39.412Z,26.2
2019-03-09T00:54:48.022Z,26.2
2019-03-09T00:57:55.094Z,26.2
2019-03-09T01:01:01.137Z,26.2
2019-03-09T01:04:07.119Z,26.2
2019-03-09T01:07:13.011Z,26.2
2019-03-09T01:10:18.938Z,26.3
2019-03-09T01:13:24.897Z,26.3
2019-03-09T01:16:30.964Z,26.3
2019-03-09T01:19:36.827Z,26.3
2019-03-09T01:22:42.980Z,26.4
2019-03-09T01:25:48.861Z,26.4
2019-03-09T01:28:54.894Z,26.4
2019-03-09T01:32:03.699Z,26.4
2019-03-09T01:35:09.794Z,26.5
2019-03-09T01:38:15.746Z,26.5
2019-03-09T01:41:21.621Z,26.5
2019-03-09T01:44:27.681Z,26.5
2019-03-09T01:47:33.724Z,26.5
2019-03-09T01:50:39.692Z,26.5
2019-03-09T01:53:45.562Z,26.5
2019-03-09T01:56:51.507Z,26.6
2019-03-09T01:59:57.478Z,26.5
2019-03-09T02:03:03.538Z,26.6
2019-03-09T02:06:09.480Z,26.6
2019-03-09T02:09:15.351Z,26.6
2019-03-09T02:12:21.296Z,26.6
2019-03-09T02:15:27.171Z,26.7
2019-03-09T02:18:33.228Z,26.6
2019-03-09T02:21:39.094Z,26.6
2019-03-09T02:24:45.147Z,26.7
2019-03-09T02:27:51.093Z,26.7
2019-03-09T02:30:57.057Z,26.7
2019-03-09T02:34:03.129Z,26.7
2019-03-09T02:37:09.095Z,26.8
2019-03-09T02:40:17.907Z,26.8
2019-03-09T02:43:26.730Z,26.8
2019-03-09T02:46:32.721Z,26.9
2019-03-09T02:49:38.755Z,26.8
2019-03-09T02:52:44.726Z,26.9
2019-03-09T02:55:50.771Z,26.9
2019-03-09T02:58:56.735Z,27
2019-03-09T03:02:02.798Z,26.9
2019-03-09T03:05:08.860Z,27
2019-03-09T03:08:14.821Z,27
2019-03-09T03:11:20.780Z,27
2019-03-09T03:14:26.725Z,27
2019-03-09T03:17:32.805Z,27
2019-03-09T03:20:38.768Z,27
2019-03-09T03:23:44.822Z,27.1
2019-03-09T03:26:50.981Z,27.1
2019-03-09T03:29:57.044Z,27.1
2019-03-09T03:33:03.124Z,27.1
2019-03-09T03:36:09.171Z,27.1
2019-03-09T03:39:17.974Z,27.1
2019-03-09T03:42:23.847Z,27.1
2019-03-09T03:45:29.723Z,27.2
2019-03-09T03:48:35.771Z,27.2
2019-03-09T03:51:41.729Z,27.1
2019-03-09T03:54:47.689Z,27.1
2019-03-09T03:57:53.653Z,27.1
2019-03-09T04:00:59.728Z,27.2
2019-03-09T04:04:05.776Z,27.2
2019-03-09T04:07:11.838Z,27.2
2019-03-09T04:10:17.899Z,27.2
2019-03-09T04:13:23.954Z,27.3
2019-03-09T04:16:30.039Z,27.2
2019-03-09T04:19:35.894Z,27.3
2019-03-09T04:22:42.044Z,27.2
2019-03-09T04:25:48.000Z,27.3
2019-03-09T04:28:53.994Z,27.3
2019-03-09T04:31:59.894Z,27.3
2019-03-09T04:35:05.883Z,27.3
2019-03-09T04:38:11.944Z,27.3
2019-03-09T04:41:17.817Z,27.4
2019-03-09T04:44:23.759Z,27.4
2019-03-09T04:47:32.074Z,27.4
2019-03-09T04:50:38.038Z,27.4
2019-03-09T04:53:44.097Z,27.4
2019-03-09T04:56:49.987Z,27.4
2019-03-09T04:59:55.914Z,27.5
2019-03-09T05:03:02.083Z,27.5
2019-03-09T05:06:08.117Z,27.5
2019-03-09T05:09:14.003Z,27.5
2019-03-09T05:12:19.962Z,27.5
2019-03-09T05:15:25.919Z,27.5
2019-03-09T05:18:31.952Z,27.5
2019-03-09T05:21:37.834Z,27.6
2019-03-09T05:24:43.902Z,27.5
2019-03-09T05:27:50.986Z,27.5
2019-03-09T05:30:56.859Z,27.5
2019-03-09T05:34:02.803Z,27.5
2019-03-09T05:37:08.777Z,27.5
2019-03-09T05:40:14.825Z,27.5
2019-03-09T05:43:23.959Z,27.6
2019-03-09T05:46:29.919Z,27.6
2019-03-09T05:49:35.879Z,27.6
2019-03-09T05:52:41.794Z,27.6
2019-03-09T05:55:47.698Z,27.5
2019-03-09T05:58:53.574Z,27.5
2019-03-09T06:01:59.508Z,27.5
2019-03-09T06:05:05.443Z,27.6
2019-03-09T06:08:11.431Z,27.7
2019-03-09T06:11:17.420Z,27.6
2019-03-09T06:14:23.353Z,27.6
2019-03-09T06:17:29.218Z,27.6
2019-03-09T06:20:37.623Z,27.6
2019-03-09T06:23:43.589Z,27.6
2019-03-09T06:26:49.576Z,27.6
2019-03-09T06:29:55.501Z,27.7
2019-03-09T06:33:01.494Z,27.7
2019-03-09T06:36:07.531Z,27.6
2019-03-09T06:39:13.589Z,27.6
2019-03-09T06:42:19.459Z,27.5
2019-03-09T06:45:25.408Z,27.4
2019-03-09T06:48:31.360Z,27.4
2019-03-09T06:51:37.362Z,27.4
2019-03-09T06:54:43.252Z,27.4
2019-03-09T06:57:49.241Z,27.3
2019-03-09T07:00:55.200Z,27.2
2019-03-09T07:04:01.133Z,27.3
2019-03-09T07:07:07.223Z,27.2
2019-03-09T07:10:13.285Z,27.2
2019-03-09T07:13:19.348Z,27.1
2019-03-09T07:16:25.302Z,27
2019-03-09T07:19:31.184Z,26.8
2019-03-09T07:22:37.158Z,26.8
2019-03-09T07:25:43.288Z,26.8
2019-03-09T07:28:49.157Z,26.7
2019-03-09T07:31:57.354Z,26.6
2019-03-09T07:35:03.232Z,26.6
2019-03-09T07:38:09.177Z,26.5
2019-03-09T07:41:15.138Z,26.4
2019-03-09T07:44:21.190Z,26.3
2019-03-09T07:47:27.258Z,26.2
2019-03-09T07:50:33.323Z,26.1
2019-03-09T07:53:39.389Z,26.1
2019-03-09T07:56:45.449Z,26
2019-03-09T07:59:51.316Z,26
2019-03-09T08:02:57.376Z,26
2019-03-09T08:06:03.340Z,26
2019-03-09T08:09:09.279Z,26
2019-03-09T08:12:15.236Z,26
2019-03-09T08:15:21.204Z,26
2019-03-09T08:18:27.158Z,26.1
2019-03-09T08:21:33.216Z,26
2019-03-09T08:24:39.176Z,26
2019-03-09T08:27:45.160Z,25.9
2019-03-09T08:30:51.201Z,25.9
2019-03-09T08:33:57.284Z,26
2019-03-09T08:37:03.277Z,26
2019-03-09T08:40:09.397Z,25.9
2019-03-09T08:43:15.550Z,25.9
2019-03-09T08:46:21.431Z,26
2019-03-09T08:49:27.486Z,25.9
2019-03-09T08:52:33.399Z,25.9
2019-03-09T08:55:39.498Z,25.8
2019-03-09T08:58:45.555Z,25.8
2019-03-09T09:01:51.440Z,25.8
2019-03-09T09:04:57.484Z,25.8
2019-03-09T09:08:04.762Z,25.8
2019-03-09T09:11:10.891Z,25.8
2019-03-09T09:14:16.796Z,25.8
2019-03-09T09:17:22.760Z,25.8
2019-03-09T09:20:28.919Z,25.8
2019-03-09T09:23:34.970Z,25.8
2019-03-09T09:26:40.845Z,25.7
2019-03-09T09:29:46.903Z,25.6
2019-03-09T09:32:52.851Z,25.7
2019-03-09T09:35:58.813Z,25.7
2019-03-09T09:39:04.791Z,25.7
2019-03-09T09:42:10.993Z,25.6
2019-03-09T09:45:17.100Z,25.6
2019-03-09T09:48:23.072Z,25.6
2019-03-09T09:51:28.957Z,25.6
2019-03-09T09:54:34.980Z,25.6
2019-03-09T09:57:40.945Z,25.6
2019-03-09T10:00:46.900Z,25.6
2019-03-09T10:03:52.974Z,25.6
2019-03-09T10:06:58.916Z,25.6
2019-03-09T10:10:04.880Z,25.6
2019-03-09T10:13:10.838Z,25.4
2019-03-09T10:16:16.800Z,25.4
2019-03-09T10:19:22.755Z,25.4
2019-03-09T10:22:28.721Z,25.4
2019-03-09T10:25:34.594Z,25.6
2019-03-09T10:28:40.652Z,25.5
2019-03-09T10:31:46.529Z,25.4
2019-03-09T10:34:52.555Z,25.4
2019-03-09T10:37:58.619Z,25.4
2019-03-09T10:41:04.578Z,25.4
2019-03-09T10:44:10.455Z,25.4
2019-03-09T10:47:16.397Z,25.2
2019-03-09T10:50:22.465Z,25.2
2019-03-09T10:53:30.775Z,25.3
2019-03-09T10:56:36.651Z,25.2
2019-03-09T10:59:42.593Z,25.4
2019-03-09T11:02:48.666Z,25.3
2019-03-09T11:05:57.437Z,25.3
2019-03-09T11:09:03.435Z,25.3
2019-03-09T11:12:09.396Z,25.3
2019-03-09T11:15:15.460Z,25.4
2019-03-09T11:18:21.421Z,25.4
2019-03-09T11:21:27.378Z,25.4
2019-03-09T11:24:33.441Z,25.2
2019-03-09T11:27:39.508Z,25.2
2019-03-09T11:30:45.466Z,25.3
2019-03-09T11:33:51.528Z,25.2
2019-03-09T11:36:57.487Z,25.3
2019-03-09T11:40:03.547Z,25.4
2019-03-09T11:43:09.535Z,25.2
2019-03-09T11:46:15.569Z,25.2
2019-03-09T11:49:21.442Z,25.1
2019-03-09T11:52:29.847Z,25.2
2019-03-09T11:55:36.011Z,24.8
2019-03-09T11:58:41.974Z,25.1
2019-03-09T12:01:47.931Z,25
2019-03-09T12:04:53.892Z,25.2
2019-03-09T12:07:59.773Z,24.8
2019-03-09T12:11:05.980Z,24.6
2019-03-09T12:14:11.982Z,24.5
2019-03-09T12:17:18.034Z,24.9
2019-03-09T12:20:24.091Z,24.8
2019-03-09T12:23:29.964Z,25
2019-03-09T12:26:36.016Z,24.6
2019-03-09T12:29:41.970Z,24.7
2019-03-09T12:32:47.928Z,24.2
2019-03-09T12:35:53.893Z,24.6
2019-03-09T12:38:59.849Z,24.1
2019-03-09T12:42:05.809Z,24.1
2019-03-09T12:45:11.767Z,24.2
2019-03-09T12:48:17.839Z,23.6
2019-03-09T12:51:23.704Z,24.1
2019-03-09T12:54:29.651Z,24.2
2019-03-09T12:57:35.612Z,23.6
2019-03-09T13:00:41.504Z,23.4
2019-03-09T13:03:47.541Z,23.4
2019-03-09T13:06:53.491Z,23.4
2019-03-09T13:09:59.362Z,23.4
2019-03-09T13:13:05.309Z,23.4
2019-03-09T13:16:11.522Z,23.3
2019-03-09T13:19:17.870Z,23.4
2019-03-09T13:22:28.254Z,23.2
2019-03-09T13:25:34.260Z,23.2
2019-03-09T13:28:42.472Z,23.2
2019-03-09T13:31:48.376Z,23.2
2019-03-09T13:34:54.390Z,23.2
2019-03-09T13:38:00.431Z,23.2
2019-03-09T13:41:06.314Z,23.2
2019-03-09T13:44:15.248Z,23.2
2019-03-09T13:47:21.205Z,23.2
2019-03-09T13:50:27.169Z,23.2
2019-03-09T13:53:33.228Z,23.2
2019-03-09T13:56:39.297Z,23.1
2019-03-09T13:59:45.249Z,23.1
2019-03-09T14:02:51.127Z,23.2
2019-03-09T14:05:57.066Z,23.1
2019-03-09T14:09:03.021Z,23.2
2019-03-09T14:12:08.896Z,23.2
2019-03-09T14:15:14.941Z,23.2
2019-03-09T14:18:20.999Z,23.1
2019-03-09T14:21:26.960Z,23.2
2019-03-09T14:24:32.852Z,23.2
2019-03-09T14:27:38.778Z,23.1
2019-03-09T14:30:44.656Z,23.2
2019-03-09T14:33:50.696Z,23.1
2019-03-09T14:36:56.655Z,23.2
2019-03-09T14:40:02.616Z,23.1
2019-03-09T14:43:08.519Z,23.1
2019-03-09T14:46:14.403Z,23.1
2019-03-09T14:49:20.430Z,23.1
2019-03-09T14:52:26.299Z,23.2
2019-03-09T14:55:32.310Z,23.2
2019-03-09T14:58:38.270Z,23.3
2019-03-09T15:01:44.145Z,23.2
2019-03-09T15:04:50.294Z,23.2
2019-03-09T15:07:56.251Z,23.2
2019-03-09T15:11:02.135Z,23.3
2019-03-09T15:14:08.375Z,23.1
2019-03-09T15:17:14.336Z,23.2
2019-03-09T15:20:20.295Z,23.3
2019-03-09T15:23:26.868Z,23.3
2019-03-09T15:26:32.829Z,23.3
2019-03-09T15:29:38.786Z,23.3
2019-03-09T15:32:44.680Z,23.4
2019-03-09T15:35:50.708Z,23.4
2019-03-09T15:38:56.603Z,23.4
2019-03-09T15:42:02.523Z,23.4
2019-03-09T15:45:08.692Z,23.3
2019-03-09T15:48:14.854Z,23.4
2019-03-09T15:51:20.813Z,23.4
2019-03-09T15:54:26.894Z,23.4
2019-03-09T15:57:32.938Z,23.4
2019-03-09T16:00:38.808Z,23.4
2019-03-09T16:03:44.752Z,23.4
2019-03-09T16:06:50.629Z,23.5
2019-03-09T16:09:56.673Z,23.5
2019-03-09T16:13:02.664Z,23.6
2019-03-09T16:16:08.699Z,23.5
2019-03-09T16:19:14.569Z,23.6
2019-03-09T16:22:22.768Z,23.6
2019-03-09T16:25:29.645Z,23.6
2019-03-09T16:28:35.609Z,23.7
2019-03-09T16:31:41.502Z,23.6
2019-03-09T16:34:47.539Z,23.7
2019-03-09T16:37:53.482Z,23.7
2019-03-09T16:40:59.442Z,23.7
2019-03-09T16:44:05.315Z,23.8
2019-03-09T16:47:11.257Z,23.9
2019-03-09T16:50:17.148Z,23.9
2019-03-09T16:53:23.280Z,23.9
2019-03-09T16:56:29.155Z,24
2019-03-09T16:59:35.206Z,24
2019-03-09T17:02:41.262Z,24
2019-03-09T17:05:47.324Z,24
2019-03-09T17:08:53.390Z,24
2019-03-09T17:11:59.352Z,24
2019-03-09T17:15:08.073Z,24.2
2019-03-09T17:18:14.044Z,24.2
2019-03-09T17:21:20.099Z,24.2
2019-03-09T17:24:25.992Z,24.2
2019-03-09T17:27:32.011Z,24.2
2019-03-09T17:30:37.889Z,24.2
2019-03-09T17:33:43.828Z,24.2
2019-03-09T17:36:49.889Z,24.3
2019-03-09T17:39:55.762Z,24.3
2019-03-09T17:43:01.716Z,24.3
2019-03-09T17:46:07.637Z,24.4
2019-03-09T17:49:13.634Z,24.4
2019-03-09T17:52:19.591Z,24.4
2019-03-09T17:55:25.551Z,24.5
2019-03-09T17:58:31.505Z,24.5
2019-03-09T18:01:37.404Z,24.5
2019-03-09T18:04:43.325Z,24.6
2019-03-09T18:07:51.948Z,24.7
2019-03-09T18:10:57.902Z,24.8
2019-03-09T18:14:07.867Z,24.9
2019-03-09T18:17:13.915Z,25
2019-03-09T18:20:19.894Z,25.1
2019-03-09T18:23:25.769Z,25.2
2019-03-09T18:26:31.812Z,25.3
2019-03-09T18:29:37.868Z,25.4
2019-03-09T18:32:43.919Z,25.5
2019-03-09T18:35:49.993Z,25.6
2019-03-09T18:38:56.042Z,25.7
2019-03-09T18:42:02.006Z,25.8
2019-03-09T18:45:07.969Z,25.9
2019-03-09T18:48:14.031Z,26.1
2019-03-09T18:51:19.992Z,26.2
2019-03-09T18:54:26.024Z,26.2
2019-03-09T18:57:32.008Z,26.4
2019-03-09T19:00:37.880Z,26.4
2019-03-09T19:03:43.801Z,26.5
2019-03-09T19:06:49.780Z,26.6
2019-03-09T19:09:55.653Z,26.7
2019-03-09T19:13:01.706Z,26.8
2019-03-09T19:16:07.581Z,26.9
2019-03-09T19:19:13.516Z,26.9
2019-03-09T19:22:19.479Z,27
2019-03-09T19:25:25.443Z,27.1
2019-03-09T19:28:31.504Z,27.2
2019-03-09T19:31:37.460Z,27.2
2019-03-09T19:34:43.330Z,27.4
2019-03-09T19:37:49.276Z,27.4
2019-03-09T19:40:57.899Z,27.6
2019-03-09T19:44:03.769Z,27.6
2019-03-09T19:47:09.813Z,27.6
2019-03-09T19:50:15.771Z,27.6
2019-03-09T19:53:21.839Z,27.7
2019-03-09T19:56:27.794Z,27.7
2019-03-09T19:59:33.680Z,27.9
2019-03-09T20:02:39.721Z,27.9
2019-03-09T20:05:45.800Z,28
2019-03-09T20:08:51.752Z,28.1
2019-03-09T20:11:57.610Z,28.1
2019-03-09T20:15:03.658Z,28.1
2019-03-09T20:18:09.533Z,28.2
2019-03-09T20:21:15.576Z,28.3
2019-03-09T20:24:21.447Z,28.3
2019-03-09T20:27:27.495Z,28.3
2019-03-09T20:30:33.448Z,28.3
2019-03-09T20:33:39.513Z,28.4
2019-03-09T20:36:45.557Z,28.4
2019-03-09T20:39:51.543Z,28.4
2019-03-09T20:42:57.493Z,28.4
2019-03-09T20:46:03.459Z,28.4
2019-03-09T20:49:09.419Z,28.5
2019-03-09T20:52:15.481Z,28.5
2019-03-09T20:55:21.438Z,28.6
2019-03-09T20:58:27.499Z,28.6
2019-03-09T21:01:33.457Z,28.6
2019-03-09T21:04:39.520Z,28.7
2019-03-09T21:07:45.605Z,28.6
2019-03-09T21:10:51.547Z,28.7
2019-03-09T21:14:08.587Z,28.7
2019-03-09T21:17:17.503Z,28.7
2019-03-09T21:20:23.555Z,28.7
2019-03-09T21:23:29.511Z,28.8
2019-03-09T21:26:37.799Z,28.8
2019-03-09T21:29:43.804Z,28.8
2019-03-09T21:32:49.719Z,28.9
2019-03-09T21:35:55.707Z,28.9
2019-03-09T21:39:01.669Z,28.9
2019-03-09T21:42:07.735Z,28.9
2019-03-09T21:45:13.605Z,29
2019-03-09T21:48:19.588Z,29
2019-03-09T21:51:25.610Z,29
2019-03-09T21:54:31.566Z,29
2019-03-09T21:57:37.527Z,29
2019-03-09T22:00:43.514Z,29.1
2019-03-09T22:03:49.354Z,29.1
2019-03-09T22:06:55.403Z,29.2
2019-03-09T22:10:01.399Z,29.1
2019-03-09T22:13:07.527Z,29.2
2019-03-09T22:16:13.487Z,29.2
2019-03-09T22:19:19.552Z,29.2
2019-03-09T22:22:25.517Z,29.2
2019-03-09T22:25:31.380Z,29.3
2019-03-09T22:28:37.426Z,29.3
2019-03-09T22:31:43.296Z,29.3
2019-03-09T22:34:49.349Z,29.4
2019-03-09T22:37:55.638Z,29.4
2019-03-09T22:41:01.570Z,29.4
2019-03-09T22:44:07.563Z,29.4
2019-03-09T22:47:13.484Z,29.4
2019-03-09T22:50:19.560Z,29.4
2019-03-09T22:53:25.509Z,29.4
2019-03-09T22:56:31.681Z,29.4
2019-03-09T22:59:37.656Z,29.5
2019-03-09T23:02:45.779Z,29.5
2019-03-09T23:05:51.810Z,29.5
2019-03-09T23:08:57.865Z,29.5
2019-03-09T23:12:03.927Z,29.5
2019-03-09T23:15:09.891Z,29.5
2019-03-09T23:18:15.948Z,29.5
2019-03-09T23:21:21.909Z,29.5
2019-03-09T23:24:27.991Z,29.5
2019-03-09T23:27:33.944Z,29.5
2019-03-09T23:30:40.022Z,29.5
2019-03-09T23:33:45.956Z,29.5
2019-03-09T23:36:51.876Z,29.5
2019-03-09T23:39:57.896Z,29.5
2019-03-09T23:43:03.934Z,29.5
2019-03-09T23:46:09.806Z,29.5
2019-03-09T23:49:15.753Z,29.5
2019-03-09T23:52:21.721Z,29.5
2019-03-09T23:55:27.680Z,29.6
2019-03-09T23:58:33.806Z,29.5
